createdAt,value
2023-04-08T00:00:27.686Z,0
2023-04-08T00:01:27.688Z,0
2023-04-08T00:02:27.843Z,0
2023-04-08T00:03:27.785Z,0
2023-04-08T00:04:27.763Z,0
2023-04-08T00:05:27.683Z,0
2023-04-08T00:06:27.733Z,0
2023-04-08T00:07:27.690Z,0
2023-04-08T00:08:27.688Z,0
2023-04-08T00:09:27.705Z,0
2023-04-08T00:10:27.694Z,0
2023-04-08T00:11:27.691Z,0
2023-04-08T00:12:27.697Z,0
2023-04-08T00:13:27.712Z,0
2023-04-08T00:14:27.703Z,0
2023-04-08T00:15:27.700Z,0
2023-04-08T00:16:27.716Z,0
2023-04-08T00:17:27.719Z,0
2023-04-08T00:18:27.704Z,0
2023-04-08T00:19:27.702Z,0
2023-04-08T00:20:27.726Z,0
2023-04-08T00:21:27.704Z,0
2023-04-08T00:22:27.740Z,0
2023-04-08T00:23:27.705Z,0
2023-04-08T00:24:27.717Z,0
2023-04-08T00:25:27.712Z,0
2023-04-08T00:26:27.716Z,0
2023-04-08T00:27:27.720Z,0
2023-04-08T00:28:27.714Z,0
2023-04-08T00:29:27.714Z,0
2023-04-08T00:30:27.715Z,0
2023-04-08T00:31:27.750Z,0
2023-04-08T00:32:27.756Z,0
2023-04-08T00:33:27.719Z,0
2023-04-08T00:34:27.719Z,0
2023-04-08T00:35:27.750Z,0
2023-04-08T00:36:27.751Z,0
2023-04-08T00:37:27.722Z,0
2023-04-08T00:38:27.747Z,0
2023-04-08T00:39:27.724Z,0
2023-04-08T00:40:27.723Z,0
2023-04-08T00:41:27.721Z,0
2023-04-08T00:42:27.720Z,0
2023-04-08T00:43:27.725Z,0
2023-04-08T00:44:27.722Z,0
2023-04-08T00:45:27.724Z,0
2023-04-08T00:46:27.746Z,0
2023-04-08T00:47:27.747Z,0
2023-04-08T00:48:27.724Z,0
2023-04-08T00:49:27.725Z,0
2023-04-08T00:50:27.726Z,0
2023-04-08T00:51:27.728Z,0
2023-04-08T00:52:27.729Z,0
2023-04-08T00:53:27.726Z,0
2023-04-08T00:54:27.781Z,0
2023-04-08T00:55:27.740Z,0
2023-04-08T00:56:27.757Z,0
2023-04-08T00:57:27.730Z,0
2023-04-08T00:58:27.738Z,0
2023-04-08T00:59:27.742Z,0
2023-04-08T01:00:27.747Z,0
2023-04-08T01:01:27.762Z,0
2023-04-08T01:02:27.870Z,0
2023-04-08T01:03:27.832Z,0
2023-04-08T01:04:27.770Z,0
2023-04-08T01:05:27.738Z,0
2023-04-08T01:06:27.740Z,0
2023-04-08T01:07:27.740Z,0
2023-04-08T01:08:27.749Z,0
2023-04-08T01:09:27.743Z,0
2023-04-08T01:10:27.777Z,0
2023-04-08T01:11:27.751Z,0
2023-04-08T01:12:27.748Z,0
2023-04-08T01:13:27.750Z,0
2023-04-08T01:14:27.749Z,0
2023-04-08T01:15:27.759Z,0
2023-04-08T01:16:27.844Z,0
2023-04-08T01:17:27.778Z,0
2023-04-08T01:18:27.756Z,0
2023-04-08T01:19:27.755Z,0
2023-04-08T01:20:27.761Z,0
2023-04-08T01:21:27.753Z,0
2023-04-08T01:22:27.757Z,0
2023-04-08T01:23:27.757Z,0
2023-04-08T01:24:27.759Z,0
2023-04-08T01:25:27.757Z,0
2023-04-08T01:26:27.791Z,0
2023-04-08T01:27:27.760Z,0
2023-04-08T01:28:27.760Z,0
2023-04-08T01:29:27.767Z,0
2023-04-08T01:30:27.766Z,0
2023-04-08T01:31:27.836Z,0
2023-04-08T01:32:27.789Z,0
2023-04-08T01:33:27.767Z,0
2023-04-08T01:34:27.767Z,0
2023-04-08T01:35:27.805Z,0
2023-04-08T01:36:27.771Z,0
2023-04-08T01:37:27.776Z,0
2023-04-08T01:38:27.787Z,0
2023-04-08T01:39:27.787Z,0
2023-04-08T01:40:27.779Z,0
2023-04-08T01:41:27.780Z,0
2023-04-08T01:42:27.823Z,0
2023-04-08T01:43:27.787Z,0
2023-04-08T01:44:27.789Z,0
2023-04-08T01:45:27.781Z,0
2023-04-08T01:46:27.827Z,0
2023-04-08T01:47:27.814Z,0
2023-04-08T01:48:27.789Z,0
2023-04-08T01:49:27.787Z,0
2023-04-08T01:50:27.790Z,0
2023-04-08T01:51:27.792Z,0
2023-04-08T01:52:27.785Z,0
2023-04-08T01:53:27.786Z,0
2023-04-08T01:54:27.789Z,0
2023-04-08T01:55:27.792Z,0
2023-04-08T01:56:27.788Z,0
2023-04-08T01:57:27.794Z,0
2023-04-08T01:58:27.817Z,0
2023-04-08T01:59:27.791Z,0
2023-04-08T02:00:27.788Z,0
2023-04-08T02:01:27.800Z,0
2023-04-08T02:02:27.860Z,0
2023-04-08T02:03:28.071Z,0
2023-04-08T02:04:27.982Z,0
2023-04-08T02:05:27.803Z,0
2023-04-08T02:06:27.793Z,0
2023-04-08T02:07:27.794Z,0
2023-04-08T02:08:27.796Z,0
2023-04-08T02:09:27.799Z,0
2023-04-08T02:10:27.799Z,0
2023-04-08T02:11:27.796Z,0
2023-04-08T02:12:27.799Z,0
2023-04-08T02:13:27.795Z,0
2023-04-08T02:14:27.832Z,0
2023-04-08T02:15:27.801Z,0
2023-04-08T02:16:27.829Z,0
2023-04-08T02:17:27.820Z,0
2023-04-08T02:18:27.808Z,0
2023-04-08T02:19:27.817Z,0
2023-04-08T02:20:27.803Z,0
2023-04-08T02:21:27.803Z,0
2023-04-08T02:22:27.806Z,0
2023-04-08T02:23:27.805Z,0
2023-04-08T02:24:27.808Z,0
2023-04-08T02:25:27.842Z,0
2023-04-08T02:26:27.815Z,0
2023-04-08T02:27:27.827Z,0
2023-04-08T02:28:27.808Z,0
2023-04-08T02:29:27.806Z,0
2023-04-08T02:30:27.832Z,0
2023-04-08T02:31:27.914Z,0
2023-04-08T02:32:27.839Z,0
2023-04-08T02:33:27.812Z,0
2023-04-08T02:34:27.820Z,0
2023-04-08T02:35:27.818Z,0
2023-04-08T02:36:27.811Z,0
2023-04-08T02:37:27.812Z,0
2023-04-08T02:38:27.813Z,0
2023-04-08T02:39:27.814Z,0
2023-04-08T02:40:27.816Z,0
2023-04-08T02:41:27.810Z,0
2023-04-08T02:42:27.819Z,0
2023-04-08T02:43:27.812Z,0
2023-04-08T02:44:27.827Z,0
2023-04-08T02:45:27.859Z,0
2023-04-08T02:46:27.836Z,0
2023-04-08T02:47:27.828Z,0
2023-04-08T02:48:27.814Z,0
2023-04-08T02:49:27.812Z,0
2023-04-08T02:50:27.813Z,0
2023-04-08T02:51:27.818Z,0
2023-04-08T02:52:27.811Z,0
2023-04-08T02:53:27.817Z,0
2023-04-08T02:54:27.817Z,0
2023-04-08T02:55:27.819Z,0
2023-04-08T02:56:27.815Z,0
2023-04-08T02:57:27.817Z,0
2023-04-08T02:58:27.820Z,0
2023-04-08T02:59:27.814Z,0
2023-04-08T03:00:27.818Z,0
2023-04-08T03:01:27.890Z,0
2023-04-08T03:02:27.925Z,0
2023-04-08T03:03:28.011Z,0
2023-04-08T03:04:27.818Z,0
2023-04-08T03:05:27.819Z,0
2023-04-08T03:06:27.819Z,0
2023-04-08T03:07:27.816Z,0
2023-04-08T03:08:27.818Z,0
2023-04-08T03:09:27.817Z,0
2023-04-08T03:10:27.812Z,0
2023-04-08T03:11:27.815Z,0
2023-04-08T03:12:27.814Z,0
2023-04-08T03:13:27.816Z,0
2023-04-08T03:14:27.814Z,0
2023-04-08T03:15:27.814Z,0
2023-04-08T03:16:27.818Z,0
2023-04-08T03:17:27.874Z,0
2023-04-08T03:18:27.842Z,0
2023-04-08T03:19:27.816Z,0
2023-04-08T03:20:27.818Z,0
2023-04-08T03:21:27.812Z,0
2023-04-08T03:22:27.812Z,0
2023-04-08T03:23:27.815Z,0
2023-04-08T03:24:27.815Z,0
2023-04-08T03:25:27.819Z,0
2023-04-08T03:26:27.822Z,0
2023-04-08T03:27:27.828Z,0
2023-04-08T03:28:27.839Z,0
2023-04-08T03:29:27.826Z,0
2023-04-08T03:30:27.825Z,0
2023-04-08T03:31:27.851Z,0
2023-04-08T03:32:27.863Z,0
2023-04-08T03:33:27.830Z,0
2023-04-08T03:34:27.858Z,0
2023-04-08T03:35:27.893Z,0
2023-04-08T03:36:27.835Z,0
2023-04-08T03:37:27.853Z,0
2023-04-08T03:38:27.843Z,0
2023-04-08T03:39:27.843Z,0
2023-04-08T03:40:27.848Z,0
2023-04-08T03:41:27.845Z,0
2023-04-08T03:42:27.849Z,0
2023-04-08T03:43:27.847Z,0
2023-04-08T03:44:27.850Z,0
2023-04-08T03:45:27.852Z,0
2023-04-08T03:46:27.967Z,0
2023-04-08T03:47:27.890Z,0
2023-04-08T03:48:27.863Z,0
2023-04-08T03:49:27.869Z,0
2023-04-08T03:50:27.913Z,43
2023-04-08T03:51:27.866Z,0
2023-04-08T03:52:27.867Z,0
2023-04-08T03:53:27.878Z,0
2023-04-08T03:54:27.876Z,0
2023-04-08T03:55:27.875Z,0
2023-04-08T03:56:27.872Z,0
2023-04-08T03:57:27.875Z,0
2023-04-08T03:58:27.872Z,0
2023-04-08T03:59:27.871Z,0
2023-04-08T04:00:27.879Z,0
2023-04-08T04:01:27.874Z,0
2023-04-08T04:02:28.006Z,0
2023-04-08T04:03:27.989Z,0
2023-04-08T04:04:27.957Z,0
2023-04-08T04:05:27.878Z,0
2023-04-08T04:06:27.904Z,0
2023-04-08T04:07:27.883Z,0
2023-04-08T04:08:27.883Z,0
2023-04-08T04:09:27.897Z,0
2023-04-08T04:10:27.887Z,0
2023-04-08T04:11:27.885Z,0
2023-04-08T04:12:27.884Z,0
2023-04-08T04:13:27.888Z,0
2023-04-08T04:14:27.903Z,0
2023-04-08T04:15:28.006Z,0
2023-04-08T04:16:27.895Z,0
2023-04-08T04:17:27.897Z,0
2023-04-08T04:18:27.927Z,0
2023-04-08T04:19:27.895Z,0
2023-04-08T04:20:27.897Z,0
2023-04-08T04:21:27.908Z,2
2023-04-08T04:22:27.929Z,2
2023-04-08T04:23:27.904Z,2
2023-04-08T04:24:27.905Z,2
2023-04-08T04:25:27.906Z,2
2023-04-08T04:26:27.912Z,4
2023-04-08T04:27:27.908Z,4
2023-04-08T04:28:27.915Z,4
2023-04-08T04:29:27.915Z,4
2023-04-08T04:30:27.918Z,4
2023-04-08T04:31:27.990Z,9
2023-04-08T04:32:27.943Z,9
2023-04-08T04:33:27.916Z,9
2023-04-08T04:34:27.917Z,9
2023-04-08T04:35:27.919Z,9
2023-04-08T04:36:27.915Z,18
2023-04-08T04:37:27.919Z,18
2023-04-08T04:38:27.955Z,18
2023-04-08T04:39:27.921Z,18
2023-04-08T04:40:27.918Z,18
2023-04-08T04:41:27.921Z,30
2023-04-08T04:42:27.920Z,30
2023-04-08T04:43:27.919Z,30
2023-04-08T04:44:27.932Z,30
2023-04-08T04:45:27.924Z,30
2023-04-08T04:46:27.936Z,44
2023-04-08T04:47:27.941Z,44
2023-04-08T04:48:27.929Z,44
2023-04-08T04:49:27.929Z,44
2023-04-08T04:50:27.933Z,44
2023-04-08T04:51:27.930Z,63
2023-04-08T04:52:27.949Z,63
2023-04-08T04:53:27.929Z,63
2023-04-08T04:54:27.961Z,63
2023-04-08T04:55:27.945Z,63
2023-04-08T04:56:27.943Z,85
2023-04-08T04:57:27.936Z,85
2023-04-08T04:58:27.935Z,85
2023-04-08T04:59:27.939Z,85
2023-04-08T05:00:27.944Z,85
2023-04-08T05:01:27.978Z,114
2023-04-08T05:02:28.065Z,114
2023-04-08T05:03:27.961Z,114
2023-04-08T05:04:27.955Z,114
2023-04-08T05:05:28.012Z,114
2023-04-08T05:06:27.956Z,150
2023-04-08T05:07:27.958Z,150
2023-04-08T05:08:28.311Z,150
2023-04-08T05:09:27.967Z,150
2023-04-08T05:10:27.994Z,150
2023-04-08T05:11:27.972Z,188
2023-04-08T05:12:27.972Z,188
2023-04-08T05:13:27.971Z,188
2023-04-08T05:14:27.976Z,188
2023-04-08T05:15:27.974Z,188
2023-04-08T05:16:28.016Z,235
2023-04-08T05:17:28.036Z,235
2023-04-08T05:18:27.984Z,235
2023-04-08T05:19:27.976Z,235
2023-04-08T05:20:27.983Z,235
2023-04-08T05:21:27.986Z,271
2023-04-08T05:22:27.984Z,271
2023-04-08T05:23:27.986Z,271
2023-04-08T05:24:27.986Z,271
2023-04-08T05:25:27.994Z,271
2023-04-08T05:26:28.026Z,298
2023-04-08T05:27:27.989Z,298
2023-04-08T05:28:27.995Z,298
2023-04-08T05:29:27.994Z,298
2023-04-08T05:30:27.998Z,298
2023-04-08T05:31:28.056Z,314
2023-04-08T05:32:28.016Z,314
2023-04-08T05:33:28.002Z,314
2023-04-08T05:34:28.006Z,314
2023-04-08T05:35:28.033Z,314
2023-04-08T05:36:28.010Z,330
2023-04-08T05:37:28.009Z,330
2023-04-08T05:38:28.010Z,330
2023-04-08T05:39:28.014Z,330
2023-04-08T05:40:28.009Z,330
2023-04-08T05:41:28.018Z,382
2023-04-08T05:42:28.054Z,382
2023-04-08T05:43:28.028Z,382
2023-04-08T05:44:28.021Z,382
2023-04-08T05:45:28.016Z,382
2023-04-08T05:46:28.141Z,458
2023-04-08T05:47:28.060Z,458
2023-04-08T05:48:28.025Z,458
2023-04-08T05:49:28.027Z,458
2023-04-08T05:50:28.026Z,458
2023-04-08T05:51:28.028Z,512
2023-04-08T05:52:28.028Z,512
2023-04-08T05:53:28.033Z,512
2023-04-08T05:54:28.029Z,512
2023-04-08T05:55:28.033Z,512
2023-04-08T05:56:28.032Z,540
2023-04-08T05:57:28.039Z,540
2023-04-08T05:58:28.060Z,540
2023-04-08T05:59:28.036Z,540
2023-04-08T06:00:28.034Z,540
2023-04-08T06:01:28.042Z,544
2023-04-08T06:02:28.149Z,544
2023-04-08T06:03:28.122Z,544
2023-04-08T06:04:28.079Z,544
2023-04-08T06:05:28.043Z,544
2023-04-08T06:06:28.039Z,562
2023-04-08T06:07:28.045Z,562
2023-04-08T06:08:28.041Z,562
2023-04-08T06:09:28.046Z,562
2023-04-08T06:10:28.050Z,562
2023-04-08T06:11:28.047Z,590
2023-04-08T06:12:28.049Z,590
2023-04-08T06:13:28.047Z,590
2023-04-08T06:14:28.078Z,590
2023-04-08T06:15:28.084Z,590
2023-04-08T06:16:28.066Z,685
2023-04-08T06:17:28.078Z,685
2023-04-08T06:18:28.056Z,685
2023-04-08T06:19:28.058Z,685
2023-04-08T06:20:28.060Z,685
2023-04-08T06:21:28.062Z,751
2023-04-08T06:22:28.059Z,751
2023-04-08T06:23:28.058Z,751
2023-04-08T06:24:28.064Z,751
2023-04-08T06:25:28.063Z,751
2023-04-08T06:26:28.065Z,768
2023-04-08T06:27:28.069Z,768
2023-04-08T06:28:28.062Z,768
2023-04-08T06:29:28.071Z,768
2023-04-08T06:30:28.113Z,768
2023-04-08T06:31:28.241Z,732
2023-04-08T06:32:28.088Z,732
2023-04-08T06:33:28.075Z,732
2023-04-08T06:34:28.073Z,732
2023-04-08T06:35:28.430Z,732
2023-04-08T06:36:28.069Z,734
2023-04-08T06:37:28.077Z,734
2023-04-08T06:38:28.076Z,734
2023-04-08T06:39:28.079Z,734
2023-04-08T06:40:28.088Z,734
2023-04-08T06:41:28.076Z,694
2023-04-08T06:42:28.079Z,694
2023-04-08T06:43:28.080Z,694
2023-04-08T06:44:28.257Z,694
2023-04-08T06:45:28.081Z,694
2023-04-08T06:46:28.166Z,706
2023-04-08T06:47:28.111Z,706
2023-04-08T06:48:28.084Z,706
2023-04-08T06:49:28.085Z,706
2023-04-08T06:50:28.088Z,706
2023-04-08T06:51:28.087Z,736
2023-04-08T06:52:28.093Z,736
2023-04-08T06:53:28.090Z,736
2023-04-08T06:54:28.090Z,736
2023-04-08T06:55:28.091Z,736
2023-04-08T06:56:28.089Z,815
2023-04-08T06:57:28.095Z,815
2023-04-08T06:58:28.093Z,815
2023-04-08T06:59:28.096Z,815
2023-04-08T07:00:28.094Z,815
2023-04-08T07:01:28.137Z,850
2023-04-08T07:02:28.216Z,850
2023-04-08T07:03:28.190Z,850
2023-04-08T07:04:28.100Z,850
2023-04-08T07:05:28.104Z,788
2023-04-08T07:06:28.108Z,788
2023-04-08T07:07:28.101Z,788
2023-04-08T07:08:28.106Z,788
2023-04-08T07:09:28.106Z,788
2023-04-08T07:10:28.109Z,827
2023-04-08T07:11:28.106Z,827
2023-04-08T07:12:28.110Z,827
2023-04-08T07:13:28.118Z,827
2023-04-08T07:14:28.109Z,827
2023-04-08T07:15:28.118Z,933
2023-04-08T07:16:28.150Z,952
2023-04-08T07:17:28.125Z,958
2023-04-08T07:18:28.140Z,958
2023-04-08T07:19:28.116Z,958
2023-04-08T07:20:28.121Z,958
2023-04-08T07:21:28.117Z,958
2023-04-08T07:22:28.125Z,1041
2023-04-08T07:23:28.127Z,1041
2023-04-08T07:24:28.122Z,1041
2023-04-08T07:25:28.125Z,1041
2023-04-08T07:26:28.117Z,1041
2023-04-08T07:27:28.127Z,1094
2023-04-08T07:28:28.127Z,1051
2023-04-08T07:29:28.128Z,1051
2023-04-08T07:30:28.130Z,1051
2023-04-08T07:31:28.192Z,1051
2023-04-08T07:32:28.157Z,1051
2023-04-08T07:33:28.129Z,950
2023-04-08T07:34:28.165Z,950
2023-04-08T07:35:28.222Z,950
2023-04-08T07:36:28.141Z,950
2023-04-08T07:37:28.145Z,950
2023-04-08T07:38:28.129Z,958
2023-04-08T07:39:28.129Z,958
2023-04-08T07:40:28.133Z,958
2023-04-08T07:41:28.131Z,958
2023-04-08T07:42:28.128Z,958
2023-04-08T07:43:28.128Z,994
2023-04-08T07:44:28.129Z,994
2023-04-08T07:45:28.136Z,994
2023-04-08T07:46:28.135Z,994
2023-04-08T07:47:28.171Z,994
2023-04-08T07:48:28.134Z,1085
2023-04-08T07:49:28.135Z,1085
2023-04-08T07:50:28.157Z,1085
2023-04-08T07:51:28.136Z,1085
2023-04-08T07:52:28.138Z,1085
2023-04-08T07:53:28.144Z,1214
2023-04-08T07:54:28.155Z,1214
2023-04-08T07:55:28.135Z,1214
2023-04-08T07:56:28.136Z,1214
2023-04-08T07:57:28.149Z,1214
2023-04-08T07:58:28.138Z,1203
2023-04-08T07:59:28.138Z,1203
2023-04-08T08:00:28.133Z,1203
2023-04-08T08:01:28.145Z,1203
2023-04-08T08:02:28.212Z,1203
2023-04-08T08:03:28.229Z,1071
2023-04-08T08:04:28.373Z,1071
2023-04-08T08:05:28.153Z,1071
2023-04-08T08:06:28.165Z,1071
2023-04-08T08:07:28.146Z,1071
2023-04-08T08:08:28.138Z,1000
2023-04-08T08:09:28.670Z,1000
2023-04-08T08:10:28.136Z,1000
2023-04-08T08:11:28.146Z,1000
2023-04-08T08:12:28.140Z,1000
2023-04-08T08:13:28.139Z,982
2023-04-08T08:14:28.141Z,982
2023-04-08T08:15:28.137Z,982
2023-04-08T08:16:28.216Z,982
2023-04-08T08:17:28.270Z,982
2023-04-08T08:18:28.146Z,791
2023-04-08T08:19:28.143Z,791
2023-04-08T08:20:28.153Z,791
2023-04-08T08:21:28.140Z,791
2023-04-08T08:22:28.176Z,791
2023-04-08T08:23:28.142Z,775
2023-04-08T08:24:28.139Z,775
2023-04-08T08:25:28.142Z,775
2023-04-08T08:26:28.148Z,775
2023-04-08T08:27:28.153Z,775
2023-04-08T08:28:28.154Z,758
2023-04-08T08:29:28.153Z,758
2023-04-08T08:30:28.150Z,758
2023-04-08T08:31:28.224Z,758
2023-04-08T08:32:28.205Z,758
2023-04-08T08:33:28.153Z,1199
2023-04-08T08:34:28.154Z,1199
2023-04-08T08:35:28.151Z,1199
2023-04-08T08:36:28.155Z,1199
2023-04-08T08:37:28.153Z,1199
2023-04-08T08:38:28.184Z,1264
2023-04-08T08:39:28.152Z,1264
2023-04-08T08:40:28.158Z,1264
2023-04-08T08:41:28.162Z,1264
2023-04-08T08:42:28.168Z,1264
2023-04-08T08:43:28.160Z,1249
2023-04-08T08:44:28.166Z,1249
2023-04-08T08:45:28.167Z,1249
2023-04-08T08:46:28.179Z,1249
2023-04-08T08:47:28.203Z,1249
2023-04-08T08:48:28.167Z,1082
2023-04-08T08:49:28.173Z,1082
2023-04-08T08:50:28.178Z,1082
2023-04-08T08:51:28.180Z,1082
2023-04-08T08:52:28.180Z,1082
2023-04-08T08:53:28.177Z,1104
2023-04-08T08:54:28.210Z,1104
2023-04-08T08:55:41.820Z,1104
2023-04-08T08:56:28.183Z,1104
2023-04-08T08:57:28.180Z,1104
2023-04-08T08:58:28.215Z,1422
2023-04-08T08:59:28.183Z,1422
2023-04-08T09:00:28.188Z,1422
2023-04-08T09:01:28.194Z,1422
2023-04-08T09:02:28.370Z,1422
2023-04-08T09:03:28.596Z,1516
2023-04-08T09:04:28.319Z,1516
2023-04-08T09:05:28.225Z,1516
2023-04-08T09:06:28.193Z,1516
2023-04-08T09:07:28.193Z,1516
2023-04-08T09:08:28.190Z,1683
2023-04-08T09:09:28.194Z,1683
2023-04-08T09:10:28.216Z,1683
2023-04-08T09:11:28.195Z,1683
2023-04-08T09:12:28.209Z,1683
2023-04-08T09:13:28.199Z,1467
2023-04-08T09:14:28.203Z,1467
2023-04-08T09:15:28.199Z,1467
2023-04-08T09:16:28.325Z,1467
2023-04-08T09:17:28.251Z,1467
2023-04-08T09:18:28.207Z,1128
2023-04-08T09:19:28.209Z,1128
2023-04-08T09:20:28.212Z,1128
2023-04-08T09:21:28.208Z,1128
2023-04-08T09:22:28.210Z,1128
2023-04-08T09:23:28.211Z,1020
2023-04-08T09:24:28.210Z,1020
2023-04-08T09:25:28.224Z,1020
2023-04-08T09:26:28.364Z,1020
2023-04-08T09:27:28.215Z,1020
2023-04-08T09:28:28.214Z,892
2023-04-08T09:29:30.036Z,892
2023-04-08T09:30:28.230Z,892
2023-04-08T09:31:28.239Z,892
2023-04-08T09:32:28.243Z,892
2023-04-08T09:33:28.224Z,1031
2023-04-08T09:34:28.223Z,1031
2023-04-08T09:35:28.253Z,1031
2023-04-08T09:36:28.224Z,1031
2023-04-08T09:37:28.229Z,1031
2023-04-08T09:38:28.226Z,1260
2023-04-08T09:39:28.228Z,1260
2023-04-08T09:40:28.247Z,1260
2023-04-08T09:41:28.229Z,1260
2023-04-08T09:42:28.265Z,1260
2023-04-08T09:43:28.236Z,1775
2023-04-08T09:44:28.236Z,1775
2023-04-08T09:45:28.362Z,1775
2023-04-08T09:46:28.242Z,1775
2023-04-08T09:47:28.262Z,1775
2023-04-08T09:48:28.262Z,1743
2023-04-08T09:49:28.243Z,1743
2023-04-08T09:50:28.246Z,1424
2023-04-08T09:51:28.245Z,1424
2023-04-08T09:52:28.246Z,1424
2023-04-08T09:53:28.252Z,1424
2023-04-08T09:54:28.253Z,1424
2023-04-08T09:55:28.252Z,1151
2023-04-08T09:56:28.255Z,1151
2023-04-08T09:57:28.254Z,1151
2023-04-08T09:58:28.280Z,1151
2023-04-08T09:59:28.260Z,1151
2023-04-08T10:00:28.260Z,1368
2023-04-08T10:01:28.382Z,1368
2023-04-08T10:02:28.336Z,1368
2023-04-08T10:03:28.526Z,1368
2023-04-08T10:04:28.352Z,1368
2023-04-08T10:05:28.269Z,1490
2023-04-08T10:06:28.266Z,1490
2023-04-08T10:07:28.278Z,1490
2023-04-08T10:08:28.261Z,1490
2023-04-08T10:09:28.269Z,1490
2023-04-08T10:10:28.293Z,1730
2023-04-08T10:11:28.269Z,1730
2023-04-08T10:12:28.268Z,1730
2023-04-08T10:13:28.290Z,1730
2023-04-08T10:14:28.311Z,1730
2023-04-08T10:15:28.276Z,1648
2023-04-08T10:16:28.292Z,1648
2023-04-08T10:17:28.304Z,1648
2023-04-08T10:18:28.277Z,1648
2023-04-08T10:19:28.280Z,1648
2023-04-08T10:20:28.285Z,1405
2023-04-08T10:21:28.286Z,1405
2023-04-08T10:22:28.289Z,1405
2023-04-08T10:23:28.289Z,1405
2023-04-08T10:24:28.293Z,1405
2023-04-08T10:25:28.289Z,1187
2023-04-08T10:26:28.292Z,1187
2023-04-08T10:27:28.289Z,1187
2023-04-08T10:28:28.289Z,1187
2023-04-08T10:29:28.289Z,1187
2023-04-08T10:30:28.355Z,842
2023-04-08T10:31:28.314Z,842
2023-04-08T10:32:28.310Z,744
2023-04-08T10:33:28.293Z,699
2023-04-08T10:34:28.299Z,699
2023-04-08T10:35:28.308Z,699
2023-04-08T10:36:28.295Z,699
2023-04-08T10:37:28.296Z,699
2023-04-08T10:38:28.301Z,756
2023-04-08T10:39:28.300Z,756
2023-04-08T10:40:28.303Z,756
2023-04-08T10:41:28.296Z,756
2023-04-08T10:42:28.293Z,756
2023-04-08T10:43:28.299Z,818
2023-04-08T10:44:28.303Z,818
2023-04-08T10:45:28.301Z,818
2023-04-08T10:46:28.382Z,818
2023-04-08T10:47:28.347Z,818
2023-04-08T10:48:28.299Z,864
2023-04-08T10:49:28.302Z,864
2023-04-08T10:50:28.314Z,864
2023-04-08T10:51:28.757Z,864
2023-04-08T10:52:28.308Z,864
2023-04-08T10:53:28.308Z,909
2023-04-08T10:54:28.308Z,909
2023-04-08T10:55:28.308Z,909
2023-04-08T10:56:28.313Z,909
2023-04-08T10:57:28.314Z,909
2023-04-08T10:58:28.312Z,985
2023-04-08T10:59:28.321Z,985
2023-04-08T11:00:28.318Z,985
2023-04-08T11:01:28.328Z,985
2023-04-08T11:02:28.467Z,985
2023-04-08T11:03:28.570Z,973
2023-04-08T11:04:28.465Z,973
2023-04-08T11:05:28.324Z,973
2023-04-08T11:06:28.341Z,973
2023-04-08T11:07:28.324Z,973
2023-04-08T11:08:28.329Z,1050
2023-04-08T11:09:28.340Z,1050
2023-04-08T11:10:28.332Z,1050
2023-04-08T11:11:28.332Z,1050
2023-04-08T11:12:28.337Z,1050
2023-04-08T11:13:28.345Z,844
2023-04-08T11:14:28.340Z,844
2023-04-08T11:15:28.343Z,844
2023-04-08T11:16:28.379Z,844
2023-04-08T11:17:28.368Z,844
2023-04-08T11:18:28.371Z,758
2023-04-08T11:19:28.340Z,758
2023-04-08T11:20:28.342Z,758
2023-04-08T11:21:28.348Z,758
2023-04-08T11:22:28.346Z,758
2023-04-08T11:23:28.356Z,773
2023-04-08T11:24:28.348Z,773
2023-04-08T11:25:28.351Z,773
2023-04-08T11:26:28.392Z,773
2023-04-08T11:27:28.348Z,773
2023-04-08T11:28:28.350Z,640
2023-04-08T11:29:28.352Z,640
2023-04-08T11:30:28.353Z,640
2023-04-08T11:31:28.426Z,640
2023-04-08T11:32:28.372Z,640
2023-04-08T11:33:28.354Z,619
2023-04-08T11:34:28.384Z,619
2023-04-08T11:35:28.456Z,619
2023-04-08T11:36:28.356Z,619
2023-04-08T11:37:29.598Z,619
2023-04-08T11:38:28.360Z,722
2023-04-08T11:39:28.366Z,722
2023-04-08T11:40:28.360Z,722
2023-04-08T11:41:28.362Z,722
2023-04-08T11:42:28.378Z,722
2023-04-08T11:43:28.361Z,610
2023-04-08T11:44:28.363Z,610
2023-04-08T11:45:28.371Z,610
2023-04-08T11:46:28.529Z,610
2023-04-08T11:47:28.386Z,610
2023-04-08T11:48:28.367Z,498
2023-04-08T11:49:28.366Z,498
2023-04-08T11:50:28.393Z,498
2023-04-08T11:51:28.369Z,498
2023-04-08T11:52:28.369Z,498
2023-04-08T11:53:28.372Z,579
2023-04-08T11:54:28.373Z,579
2023-04-08T11:55:28.375Z,579
2023-04-08T11:56:28.377Z,579
2023-04-08T11:57:28.377Z,579
2023-04-08T11:58:28.383Z,609
2023-04-08T11:59:29.470Z,609
2023-04-08T12:00:28.378Z,609
2023-04-08T12:01:28.380Z,609
2023-04-08T12:02:28.468Z,609
2023-04-08T12:03:28.433Z,624
2023-04-08T12:04:28.459Z,624
2023-04-08T12:05:28.382Z,624
2023-04-08T12:06:28.413Z,624
2023-04-08T12:07:28.389Z,624
2023-04-08T12:08:28.390Z,534
2023-04-08T12:09:28.394Z,534
2023-04-08T12:10:28.385Z,534
2023-04-08T12:11:28.405Z,534
2023-04-08T12:12:28.387Z,534
2023-04-08T12:13:28.393Z,599
2023-04-08T12:14:28.623Z,599
2023-04-08T12:15:28.402Z,599
2023-04-08T12:16:28.466Z,599
2023-04-08T12:17:28.401Z,599
2023-04-08T12:18:28.394Z,527
2023-04-08T12:19:28.399Z,527
2023-04-08T12:20:28.409Z,527
2023-04-08T12:21:28.400Z,527
2023-04-08T12:22:28.421Z,527
2023-04-08T12:23:28.396Z,518
2023-04-08T12:24:28.399Z,518
2023-04-08T12:25:28.399Z,518
2023-04-08T12:26:28.407Z,518
2023-04-08T12:27:28.406Z,518
2023-04-08T12:28:28.406Z,559
2023-04-08T12:29:28.404Z,559
2023-04-08T12:30:28.415Z,559
2023-04-08T12:31:28.470Z,559
2023-04-08T12:32:28.433Z,559
2023-04-08T12:33:28.412Z,515
2023-04-08T12:34:28.414Z,515
2023-04-08T12:35:28.412Z,515
2023-04-08T12:36:28.484Z,515
2023-04-08T12:37:28.422Z,515
2023-04-08T12:38:28.440Z,509
2023-04-08T12:39:28.416Z,509
2023-04-08T12:40:28.420Z,509
2023-04-08T12:41:28.413Z,509
2023-04-08T12:42:28.444Z,509
2023-04-08T12:43:28.420Z,495
2023-04-08T12:44:28.418Z,495
2023-04-08T12:45:28.421Z,495
2023-04-08T12:46:28.462Z,495
2023-04-08T12:47:28.459Z,495
2023-04-08T12:48:28.420Z,540
2023-04-08T12:49:28.441Z,540
2023-04-08T12:50:28.420Z,540
2023-04-08T12:51:28.417Z,540
2023-04-08T12:52:28.420Z,540
2023-04-08T12:53:28.431Z,617
2023-04-08T12:54:28.450Z,617
2023-04-08T12:55:28.423Z,617
2023-04-08T12:56:28.424Z,617
2023-04-08T12:57:28.451Z,617
2023-04-08T12:58:28.423Z,702
2023-04-08T12:59:28.433Z,702
2023-04-08T13:00:28.427Z,702
2023-04-08T13:01:28.472Z,702
2023-04-08T13:02:28.487Z,702
2023-04-08T13:03:28.541Z,704
2023-04-08T13:04:28.431Z,704
2023-04-08T13:05:40.141Z,704
2023-04-08T13:06:28.441Z,704
2023-04-08T13:07:28.422Z,704
2023-04-08T13:08:28.433Z,639
2023-04-08T13:09:28.424Z,639
2023-04-08T13:10:28.454Z,639
2023-04-08T13:11:28.425Z,639
2023-04-08T13:12:28.428Z,639
2023-04-08T13:13:28.429Z,526
2023-04-08T13:14:28.428Z,526
2023-04-08T13:15:28.426Z,526
2023-04-08T13:16:28.469Z,526
2023-04-08T13:17:28.474Z,526
2023-04-08T13:18:28.430Z,513
2023-04-08T13:19:28.425Z,513
2023-04-08T13:20:28.437Z,513
2023-04-08T13:21:28.427Z,513
2023-04-08T13:22:28.432Z,513
2023-04-08T13:23:28.430Z,673
2023-04-08T13:24:28.436Z,673
2023-04-08T13:25:28.450Z,673
2023-04-08T13:26:28.463Z,673
2023-04-08T13:27:28.434Z,673
2023-04-08T13:28:28.441Z,762
2023-04-08T13:29:28.436Z,762
2023-04-08T13:30:28.443Z,762
2023-04-08T13:31:28.443Z,762
2023-04-08T13:32:28.442Z,762
2023-04-08T13:33:28.438Z,812
2023-04-08T13:34:28.448Z,812
2023-04-08T13:35:28.439Z,812
2023-04-08T13:36:28.464Z,812
2023-04-08T13:37:28.439Z,812
2023-04-08T13:38:28.445Z,693
2023-04-08T13:39:28.439Z,693
2023-04-08T13:40:28.438Z,693
2023-04-08T13:41:28.474Z,693
2023-04-08T13:42:28.469Z,693
2023-04-08T13:43:28.435Z,700
2023-04-08T13:44:28.439Z,700
2023-04-08T13:45:28.439Z,700
2023-04-08T13:46:28.497Z,700
2023-04-08T13:47:28.506Z,700
2023-04-08T13:48:28.441Z,605
2023-04-08T13:49:28.440Z,605
2023-04-08T13:50:28.440Z,605
2023-04-08T13:51:28.442Z,605
2023-04-08T13:52:28.442Z,605
2023-04-08T13:53:28.445Z,639
2023-04-08T13:54:28.444Z,639
2023-04-08T13:55:28.444Z,639
2023-04-08T13:56:28.444Z,639
2023-04-08T13:57:28.443Z,639
2023-04-08T13:58:28.471Z,685
2023-04-08T13:59:28.443Z,685
2023-04-08T14:00:28.450Z,685